sensor_id;sensor_type;location;lat;lon;timestamp;pressure;altitude;pressure_sealevel;temperature;humidity
17254;BME280;32542;52.832;13.816;2023-03-17T00:01:07;101783.06;;;20.91;43.11
17254;BME280;32542;52.832;13.816;2023-03-17T00:04:11;101783.00;;;20.94;43.11
17254;BME280;32542;52.832;13.816;2023-03-17T00:07:15;101787.38;;;20.95;43.13
17254;BME280;32542;52.832;13.816;2023-03-17T00:10:20;101778.53;;;20.95;43.05
17254;BME280;32542;52.832;13.816;2023-03-17T00:13:24;101776.78;;;20.94;43.24
17254;BME280;32542;52.832;13.816;2023-03-17T00:16:29;101784.03;;;20.90;43.22
17254;BME280;32542;52.832;13.816;2023-03-17T00:19:34;101776.03;;;20.90;43.19
17254;BME280;32542;52.832;13.816;2023-03-17T00:22:37;101772.53;;;20.88;43.20
17254;BME280;32542;52.832;13.816;2023-03-17T00:25:41;101783.19;;;20.88;43.15
17254;BME280;32542;52.832;13.816;2023-03-17T00:28:45;101775.22;;;20.87;43.17
17254;BME280;32542;52.832;13.816;2023-03-17T00:31:50;101766.41;;;20.86;43.14
17254;BME280;32542;52.832;13.816;2023-03-17T00:34:56;101775.22;;;20.87;43.19
17254;BME280;32542;52.832;13.816;2023-03-17T00:37:59;101764.56;;;20.88;43.09
17254;BME280;32542;52.832;13.816;2023-03-17T00:41:04;101771.59;;;20.89;43.05
17254;BME280;32542;52.832;13.816;2023-03-17T00:44:07;101775.16;;;20.90;43.05
17254;BME280;32542;52.832;13.816;2023-03-17T00:47:12;101767.09;;;20.91;43.03
17254;BME280;32542;52.832;13.816;2023-03-17T00:50:18;101756.44;;;20.91;42.98
17254;BME280;32542;52.832;13.816;2023-03-17T00:53:22;101738.75;;;20.90;43.07
17254;BME280;32542;52.832;13.816;2023-03-17T00:56:25;101742.44;;;20.86;43.10
17254;BME280;32542;52.832;13.816;2023-03-17T00:59:32;101740.69;;;20.85;43.14
17254;BME280;32542;52.832;13.816;2023-03-17T01:02:39;101733.63;;;20.84;43.11
17254;BME280;32542;52.832;13.816;2023-03-17T01:05:42;101736.28;;;20.84;42.98
17254;BME280;32542;52.832;13.816;2023-03-17T01:08:45;101726.47;;;20.86;42.98
17254;BME280;32542;52.832;13.816;2023-03-17T01:11:48;101714.06;;;20.85;43.04
17254;BME280;32542;52.832;13.816;2023-03-17T01:14:51;101712.22;;;20.87;43.04
17254;BME280;32542;52.832;13.816;2023-03-17T01:17:56;101716.56;;;20.90;42.89
17254;BME280;32542;52.832;13.816;2023-03-17T01:20:59;101716.50;;;20.93;42.74
17254;BME280;32542;52.832;13.816;2023-03-17T01:24:02;101717.34;;;20.93;42.62
17254;BME280;32542;52.832;13.816;2023-03-17T01:27:05;101713.84;;;20.91;42.70
17254;BME280;32542;52.832;13.816;2023-03-17T01:30:20;101708.53;;;20.91;42.72
17254;BME280;32542;52.832;13.816;2023-03-17T01:33:25;101703.25;;;20.90;42.68
17254;BME280;32542;52.832;13.816;2023-03-17T01:36:28;101691.78;;;20.88;42.72
17254;BME280;32542;52.832;13.816;2023-03-17T01:39:31;101700.59;;;20.90;42.75
17254;BME280;32542;52.832;13.816;2023-03-17T01:42:34;101689.06;;;20.89;42.83
17254;BME280;32542;52.832;13.816;2023-03-17T01:49:31;101685.50;;;20.90;42.79
17254;BME280;32542;52.832;13.816;2023-03-17T01:52:37;101669.53;;;20.90;42.69
17254;BME280;32542;52.832;13.816;2023-03-17T01:55:40;101667.72;;;20.91;42.65
17254;BME280;32542;52.832;13.816;2023-03-17T01:58:49;101676.56;;;20.91;42.59
17254;BME280;32542;52.832;13.816;2023-03-17T02:01:58;101683.66;;;20.92;42.64
17254;BME280;32542;52.832;13.816;2023-03-17T02:05:06;101674.78;;;20.92;42.52
17254;BME280;32542;52.832;13.816;2023-03-17T02:08:11;101660.59;;;20.91;42.58
17254;BME280;32542;52.832;13.816;2023-03-17T02:11:14;101648.22;;;20.90;42.68
17254;BME280;32542;52.832;13.816;2023-03-17T02:14:17;101657.13;;;20.89;42.53
17254;BME280;32542;52.832;13.816;2023-03-17T02:17:23;101652.69;;;20.90;42.55
17254;BME280;32542;52.832;13.816;2023-03-17T02:24:08;101655.41;;;20.88;42.70
17254;BME280;32542;52.832;13.816;2023-03-17T02:27:15;101644.75;;;20.88;42.66
17254;BME280;32542;52.832;13.816;2023-03-17T02:30:21;101642.09;;;20.88;42.56
17254;BME280;32542;52.832;13.816;2023-03-17T02:33:24;101634.94;;;20.89;42.59
17254;BME280;32542;52.832;13.816;2023-03-17T02:36:28;101622.50;;;20.89;42.44
17254;BME280;32542;52.832;13.816;2023-03-17T02:39:33;101616.31;;;20.89;42.62
17254;BME280;32542;52.832;13.816;2023-03-17T02:42:36;101618.13;;;20.88;42.49
17254;BME280;32542;52.832;13.816;2023-03-17T02:45:39;101617.31;;;20.86;42.58
17254;BME280;32542;52.832;13.816;2023-03-17T02:48:45;101625.28;;;20.86;42.56
17254;BME280;32542;52.832;13.816;2023-03-17T02:51:49;101614.66;;;20.86;42.63
17254;BME280;32542;52.832;13.816;2023-03-17T02:54:53;101607.56;;;20.85;42.46
17254;BME280;32542;52.832;13.816;2023-03-17T02:57:56;101602.25;;;20.85;42.48
17254;BME280;32542;52.832;13.816;2023-03-17T03:00:59;101601.38;;;20.85;42.53
17254;BME280;32542;52.832;13.816;2023-03-17T03:04:02;101607.56;;;20.85;42.44
17254;BME280;32542;52.832;13.816;2023-03-17T03:07:05;101612.91;;;20.85;42.53
17254;BME280;32542;52.832;13.816;2023-03-17T03:10:10;101612.91;;;20.85;42.42
17254;BME280;32542;52.832;13.816;2023-03-17T03:13:13;101612.91;;;20.85;42.40
17254;BME280;32542;52.832;13.816;2023-03-17T03:16:16;101612.00;;;20.85;42.44
17254;BME280;32542;52.832;13.816;2023-03-17T03:19:19;101617.34;;;20.85;42.34
17254;BME280;32542;52.832;13.816;2023-03-17T03:22:23;101627.16;;;20.84;42.27
17254;BME280;32542;52.832;13.816;2023-03-17T03:25:27;101618.28;;;20.84;42.34
17254;BME280;32542;52.832;13.816;2023-03-17T03:28:30;101619.19;;;20.83;42.57
17254;BME280;32542;52.832;13.816;2023-03-17T03:31:33;101622.78;;;20.82;42.56
17254;BME280;32542;52.832;13.816;2023-03-17T03:34:35;101626.31;;;20.82;42.34
17254;BME280;32542;52.832;13.816;2023-03-17T03:37:38;101633.44;;;20.82;42.27
17254;BME280;32542;52.832;13.816;2023-03-17T03:40:43;101635.16;;;20.83;42.37
17254;BME280;32542;52.832;13.816;2023-03-17T03:43:46;101639.63;;;20.82;42.29
17254;BME280;32542;52.832;13.816;2023-03-17T03:46:49;101621.84;;;20.83;42.34
17254;BME280;32542;52.832;13.816;2023-03-17T03:49:52;101623.66;;;20.82;42.32
17254;BME280;32542;52.832;13.816;2023-03-17T03:52:55;101617.41;;;20.83;42.38
17254;BME280;32542;52.832;13.816;2023-03-17T03:56:00;101611.25;;;20.81;42.36
17254;BME280;32542;52.832;13.816;2023-03-17T03:59:03;101612.16;;;20.80;42.38
17254;BME280;32542;52.832;13.816;2023-03-17T04:02:06;101620.16;;;20.80;42.32
17254;BME280;32542;52.832;13.816;2023-03-17T04:05:10;101611.34;;;20.78;42.39
17254;BME280;32542;52.832;13.816;2023-03-17T04:08:14;101619.41;;;20.77;42.52
17254;BME280;32542;52.832;13.816;2023-03-17T04:11:18;101613.19;;;20.76;42.36
17254;BME280;32542;52.832;13.816;2023-03-17T04:14:21;101612.28;;;20.77;42.44
17254;BME280;32542;52.832;13.816;2023-03-17T04:17:24;101615.84;;;20.78;42.49
17254;BME280;32542;52.832;13.816;2023-03-17T04:20:27;101614.97;;;20.77;42.35
17254;BME280;32542;52.832;13.816;2023-03-17T04:23:30;101602.53;;;20.78;42.37
17254;BME280;32542;52.832;13.816;2023-03-17T04:26:34;101609.63;;;20.77;42.38
17254;BME280;32542;52.832;13.816;2023-03-17T04:29:37;101603.44;;;20.77;42.41
17254;BME280;32542;52.832;13.816;2023-03-17T04:32:40;101602.56;;;20.76;42.27
17254;BME280;32542;52.832;13.816;2023-03-17T04:35:43;101600.84;;;20.75;42.41
17254;BME280;32542;52.832;13.816;2023-03-17T04:38:46;101601.75;;;20.74;42.39
17254;BME280;32542;52.832;13.816;2023-03-17T04:41:50;101591.16;;;20.73;42.47
17254;BME280;32542;52.832;13.816;2023-03-17T04:44:53;101586.72;;;20.73;42.47
17254;BME280;32542;52.832;13.816;2023-03-17T04:47:56;101581.38;;;20.73;42.33
17254;BME280;32542;52.832;13.816;2023-03-17T04:50:59;101579.63;;;20.72;42.39
17254;BME280;32542;52.832;13.816;2023-03-17T04:54:03;101584.03;;;20.73;42.34
17254;BME280;32542;52.832;13.816;2023-03-17T04:57:08;101577.78;;;20.74;42.29
17254;BME280;32542;52.832;13.816;2023-03-17T05:00:11;101582.25;;;20.74;42.31
17254;BME280;32542;52.832;13.816;2023-03-17T05:03:16;101580.44;;;20.74;42.20
17254;BME280;32542;52.832;13.816;2023-03-17T05:06:28;101579.59;;;20.74;42.31
17254;BME280;32542;52.832;13.816;2023-03-17T05:09:31;101592.91;;;20.74;42.37
17254;BME280;32542;52.832;13.816;2023-03-17T05:12:35;101589.38;;;20.73;42.32
17254;BME280;32542;52.832;13.816;2023-03-17T05:15:38;101583.09;;;20.74;42.29
17254;BME280;32542;52.832;13.816;2023-03-17T05:18:41;101590.28;;;20.72;42.12
17254;BME280;32542;52.832;13.816;2023-03-17T05:21:45;101582.28;;;20.72;42.27
17254;BME280;32542;52.832;13.816;2023-03-17T05:24:48;101586.78;;;20.72;42.30
17254;BME280;32542;52.832;13.816;2023-03-17T05:27:52;101586.78;;;20.72;42.34
17254;BME280;32542;52.832;13.816;2023-03-17T05:30:55;101584.09;;;20.72;42.32
17254;BME280;32542;52.832;13.816;2023-03-17T05:33:58;101575.19;;;20.73;42.39
17254;BME280;32542;52.832;13.816;2023-03-17T05:37:01;101557.44;;;20.73;42.44
17254;BME280;32542;52.832;13.816;2023-03-17T05:40:04;101557.44;;;20.73;42.50
17254;BME280;32542;52.832;13.816;2023-03-17T05:43:08;101585.75;;;20.74;42.39
17254;BME280;32542;52.832;13.816;2023-03-17T05:46:11;101567.03;;;20.77;42.55
17254;BME280;32542;52.832;13.816;2023-03-17T05:49:15;101561.59;;;20.80;42.39
17254;BME280;32542;52.832;13.816;2023-03-17T05:52:19;101574.72;;;20.86;42.18
17254;BME280;32542;52.832;13.816;2023-03-17T05:55:22;101570.06;;;20.91;42.26
17254;BME280;32542;52.832;13.816;2023-03-17T05:58:26;101566.28;;;20.98;42.09
17254;BME280;32542;52.832;13.816;2023-03-17T06:01:29;101577.69;;;21.04;41.96
17254;BME280;32542;52.832;13.816;2023-03-17T06:04:32;101582.72;;;21.11;41.90
17254;BME280;32542;52.832;13.816;2023-03-17T06:07:36;101581.63;;;21.17;41.80
17254;BME280;32542;52.832;13.816;2023-03-17T06:10:55;101571.66;;;21.22;41.68
17254;BME280;32542;52.832;13.816;2023-03-17T06:14:00;101575.84;;;21.29;41.54
17254;BME280;32542;52.832;13.816;2023-03-17T06:17:02;101570.41;;;21.32;41.54
17254;BME280;32542;52.832;13.816;2023-03-17T06:20:06;101565.88;;;21.34;41.65
17254;BME280;32542;52.832;13.816;2023-03-17T06:23:10;101562.31;;;21.35;41.61
17254;BME280;32542;52.832;13.816;2023-03-17T06:26:12;101559.56;;;21.36;41.59
17254;BME280;32542;52.832;13.816;2023-03-17T06:29:17;101560.44;;;21.37;41.58
17254;BME280;32542;52.832;13.816;2023-03-17T06:32:20;101556.03;;;21.36;41.62
17254;BME280;32542;52.832;13.816;2023-03-17T06:35:23;101550.69;;;21.36;41.52
17254;BME280;32542;52.832;13.816;2023-03-17T06:38:26;101558.69;;;21.36;41.53
17254;BME280;32542;52.832;13.816;2023-03-17T06:41:29;101559.63;;;21.35;41.57
17254;BME280;32542;52.832;13.816;2023-03-17T06:44:33;101554.38;;;21.33;41.50
17254;BME280;32542;52.832;13.816;2023-03-17T06:47:36;101555.28;;;21.32;41.54
17254;BME280;32542;52.832;13.816;2023-03-17T06:50:40;101550.94;;;21.30;41.58
17254;BME280;32542;52.832;13.816;2023-03-17T06:53:43;101552.72;;;21.29;41.66
17254;BME280;32542;52.832;13.816;2023-03-17T06:56:46;101547.47;;;21.28;41.56
17254;BME280;32542;52.832;13.816;2023-03-17T06:59:50;101552.78;;;21.28;41.69
17254;BME280;32542;52.832;13.816;2023-03-17T07:02:53;101551.06;;;21.27;41.71
17254;BME280;32542;52.832;13.816;2023-03-17T07:05:56;101556.44;;;21.25;41.60
17254;BME280;32542;52.832;13.816;2023-03-17T07:08:59;101551.97;;;21.26;41.63
17254;BME280;32542;52.832;13.816;2023-03-17T07:12:03;101537.78;;;21.25;41.71
17254;BME280;32542;52.832;13.816;2023-03-17T07:15:08;101536.06;;;21.24;41.66
17254;BME280;32542;52.832;13.816;2023-03-17T07:18:12;101536.94;;;21.25;41.68
17254;BME280;32542;52.832;13.816;2023-03-17T07:21:16;101536.06;;;21.24;41.74
17254;BME280;32542;52.832;13.816;2023-03-17T07:24:18;101540.50;;;21.24;41.71
17254;BME280;32542;52.832;13.816;2023-03-17T07:27:21;101529.88;;;21.24;41.64
17254;BME280;32542;52.832;13.816;2023-03-17T07:30:27;101536.13;;;21.23;41.61
17254;BME280;32542;52.832;13.816;2023-03-17T07:33:30;101537.91;;;21.22;41.61
17254;BME280;32542;52.832;13.816;2023-03-17T07:36:34;101516.66;;;21.21;41.18
17254;BME280;32542;52.832;13.816;2023-03-17T07:39:37;101507.81;;;21.20;40.79
17254;BME280;32542;52.832;13.816;2023-03-17T07:42:40;101491.81;;;21.20;40.64
17254;BME280;32542;52.832;13.816;2023-03-17T07:45:45;101488.34;;;21.18;40.34
17254;BME280;32542;52.832;13.816;2023-03-17T07:48:48;101480.41;;;21.17;40.38
17254;BME280;32542;52.832;13.816;2023-03-17T07:51:51;101472.38;;;21.18;40.60
17254;BME280;32542;52.832;13.816;2023-03-17T07:54:54;101462.56;;;21.19;40.81
17254;BME280;32542;52.832;13.816;2023-03-17T07:57:58;101462.53;;;21.20;41.07
17254;BME280;32542;52.832;13.816;2023-03-17T08:01:03;101455.38;;;21.21;41.13
17254;BME280;32542;52.832;13.816;2023-03-17T08:04:06;101466.03;;;21.21;41.39
17254;BME280;32542;52.832;13.816;2023-03-17T08:07:12;101473.13;;;21.22;41.39
17254;BME280;32542;52.832;13.816;2023-03-17T08:10:15;101474.00;;;21.22;41.41
17254;BME280;32542;52.832;13.816;2023-03-17T08:13:18;101476.59;;;21.24;41.57
17254;BME280;32542;52.832;13.816;2023-03-17T08:16:23;101472.06;;;21.26;41.53
17254;BME280;32542;52.832;13.816;2023-03-17T08:19:25;101481.84;;;21.25;41.44
17254;BME280;32542;52.832;13.816;2023-03-17T08:22:28;101464.06;;;21.26;41.55
17254;BME280;32542;52.832;13.816;2023-03-17T08:25:31;101465.81;;;21.27;41.59
17254;BME280;32542;52.832;13.816;2023-03-17T08:28:34;101480.00;;;21.27;41.61
17254;BME280;32542;52.832;13.816;2023-03-17T08:31:38;101474.63;;;21.29;41.55
17254;BME280;32542;52.832;13.816;2023-03-17T08:34:41;101463.97;;;21.29;41.68
17254;BME280;32542;52.832;13.816;2023-03-17T08:37:45;101453.31;;;21.29;41.53
17254;BME280;32542;52.832;13.816;2023-03-17T08:40:48;101447.09;;;21.28;41.60
17254;BME280;32542;52.832;13.816;2023-03-17T08:43:51;101458.63;;;21.29;41.51
17254;BME280;32542;52.832;13.816;2023-03-17T08:46:56;101443.56;;;21.28;41.60
17254;BME280;32542;52.832;13.816;2023-03-17T08:49:59;101432.00;;;21.29;41.54
17254;BME280;32542;52.832;13.816;2023-03-17T08:53:02;101433.72;;;21.30;41.51
17254;BME280;32542;52.832;13.816;2023-03-17T08:56:05;101439.03;;;21.30;41.64
17254;BME280;32542;52.832;13.816;2023-03-17T08:59:09;101429.25;;;21.30;41.54
17254;BME280;32542;52.832;13.816;2023-03-17T09:02:14;101429.25;;;21.30;41.46
17254;BME280;32542;52.832;13.816;2023-03-17T09:05:17;101418.53;;;21.32;41.60
17254;BME280;32542;52.832;13.816;2023-03-17T09:08:21;101423.88;;;21.32;41.48
17254;BME280;32542;52.832;13.816;2023-03-17T09:11:26;101424.75;;;21.32;41.40
17254;BME280;32542;52.832;13.816;2023-03-17T09:14:30;101431.03;;;21.31;41.50
17254;BME280;32542;52.832;13.816;2023-03-17T09:17:45;101425.69;;;21.31;41.35
17254;BME280;32542;52.832;13.816;2023-03-17T09:20:48;101415.88;;;21.32;41.47
17254;BME280;32542;52.832;13.816;2023-03-17T09:23:51;101403.50;;;21.31;41.49
17254;BME280;32542;52.832;13.816;2023-03-17T09:26:53;101404.41;;;21.30;41.51
17254;BME280;32542;52.832;13.816;2023-03-17T09:30:00;101411.50;;;21.31;41.43
17254;BME280;32542;52.832;13.816;2023-03-17T09:33:04;101407.97;;;21.30;41.31
17254;BME280;32542;52.832;13.816;2023-03-17T09:36:10;101415.94;;;21.30;41.33
17254;BME280;32542;52.832;13.816;2023-03-17T09:39:14;101407.88;;;21.32;41.47
17254;BME280;32542;52.832;13.816;2023-03-17T09:42:27;101399.91;;;21.32;41.37
17254;BME280;32542;52.832;13.816;2023-03-17T09:45:36;101398.19;;;21.31;41.52
17254;BME280;32542;52.832;13.816;2023-03-17T09:48:49;101399.06;;;21.31;41.42
17254;BME280;32542;52.832;13.816;2023-03-17T09:51:54;101384.84;;;21.31;41.49
17254;BME280;32542;52.832;13.816;2023-03-17T09:54:57;101389.31;;;21.30;41.40
17254;BME280;32542;52.832;13.816;2023-03-17T09:58:02;101374.25;;;21.29;41.33
17254;BME280;32542;52.832;13.816;2023-03-17T10:01:08;101383.97;;;21.30;41.35
17254;BME280;32542;52.832;13.816;2023-03-17T10:04:16;101384.06;;;21.29;41.43
17254;BME280;32542;52.832;13.816;2023-03-17T10:07:23;101389.38;;;21.29;41.40
17254;BME280;32542;52.832;13.816;2023-03-17T10:10:34;101394.72;;;21.29;41.53
17254;BME280;32542;52.832;13.816;2023-03-17T10:13:48;101385.84;;;21.28;41.41
17254;BME280;32542;52.832;13.816;2023-03-17T10:16:57;101387.63;;;21.28;41.46
17254;BME280;32542;52.832;13.816;2023-03-17T10:20:07;101378.72;;;21.29;41.43
17254;BME280;32542;52.832;13.816;2023-03-17T10:23:12;101392.88;;;21.29;41.40
17254;BME280;32542;52.832;13.816;2023-03-17T10:26:25;101384.06;;;21.29;41.33
17254;BME280;32542;52.832;13.816;2023-03-17T10:29:30;101380.44;;;21.30;41.41
17254;BME280;32542;52.832;13.816;2023-03-17T10:32:36;101377.78;;;21.30;41.37
17254;BME280;32542;52.832;13.816;2023-03-17T10:35:42;101384.91;;;21.29;41.39
17254;BME280;32542;52.832;13.816;2023-03-17T10:38:49;101386.72;;;21.29;41.47
17254;BME280;32542;52.832;13.816;2023-03-17T10:41:56;101390.28;;;21.28;41.30
17254;BME280;32542;52.832;13.816;2023-03-17T10:45:02;101382.31;;;21.28;41.39
17254;BME280;32542;52.832;13.816;2023-03-17T10:48:08;101400.03;;;21.29;41.32
17254;BME280;32542;52.832;13.816;2023-03-17T10:51:20;101380.44;;;21.30;41.34
17254;BME280;32542;52.832;13.816;2023-03-17T10:54:24;101371.53;;;21.31;41.43
17254;BME280;32542;52.832;13.816;2023-03-17T10:57:28;101367.09;;;21.31;41.45
17254;BME280;32542;52.832;13.816;2023-03-17T11:00:33;101369.75;;;21.31;41.46
17254;BME280;32542;52.832;13.816;2023-03-17T11:03:38;101366.22;;;21.31;41.53
17254;BME280;32542;52.832;13.816;2023-03-17T11:06:43;101360.88;;;21.31;41.65
17254;BME280;32542;52.832;13.816;2023-03-17T11:09:48;101373.31;;;21.30;41.82
17254;BME280;32542;52.832;13.816;2023-03-17T11:12:54;101355.56;;;21.31;41.93
17254;BME280;32542;52.832;13.816;2023-03-17T11:16:11;101354.59;;;21.32;42.13
17254;BME280;32542;52.832;13.816;2023-03-17T11:19:23;101342.16;;;21.32;42.39
17254;BME280;32542;52.832;13.816;2023-03-17T11:22:34;101343.03;;;21.33;42.53
17254;BME280;32542;52.832;13.816;2023-03-17T11:25:41;101343.03;;;21.33;42.39
17254;BME280;32542;52.832;13.816;2023-03-17T11:28:49;101346.50;;;21.35;42.55
17254;BME280;32542;52.832;13.816;2023-03-17T11:31:57;101341.16;;;21.35;42.72
17254;BME280;32542;52.832;13.816;2023-03-17T11:35:21;101345.56;;;21.36;42.82
17254;BME280;32542;52.832;13.816;2023-03-17T11:38:28;101338.44;;;21.36;42.80
17254;BME280;32542;52.832;13.816;2023-03-17T11:41:42;101333.97;;;21.37;43.02
17254;BME280;32542;52.832;13.816;2023-03-17T11:45:05;101328.66;;;21.37;43.56
17254;BME280;32542;52.832;13.816;2023-03-17T11:48:17;101328.66;;;21.37;43.81
17254;BME280;32542;52.832;13.816;2023-03-17T11:51:27;101324.25;;;21.36;44.03
17254;BME280;32542;52.832;13.816;2023-03-17T11:54:42;101312.66;;;21.37;44.24
17254;BME280;32542;52.832;13.816;2023-03-17T11:57:52;101313.53;;;21.37;44.69
17254;BME280;32542;52.832;13.816;2023-03-17T12:00:59;101313.47;;;21.39;44.75
17254;BME280;32542;52.832;13.816;2023-03-17T12:04:09;101301.88;;;21.40;45.04
17254;BME280;32542;52.832;13.816;2023-03-17T12:07:17;101300.03;;;21.42;45.29
17254;BME280;32542;52.832;13.816;2023-03-17T12:10:23;101298.16;;;21.44;45.34
17254;BME280;32542;52.832;13.816;2023-03-17T12:13:34;101295.44;;;21.45;45.17
17254;BME280;32542;52.832;13.816;2023-03-17T12:16:45;101301.56;;;21.47;45.33
17254;BME280;32542;52.832;13.816;2023-03-17T12:20:00;101286.44;;;21.48;45.48
17254;BME280;32542;52.832;13.816;2023-03-17T12:23:13;101279.25;;;21.50;45.32
17254;BME280;32542;52.832;13.816;2023-03-17T12:26:25;101279.19;;;21.51;45.37
17254;BME280;32542;52.832;13.816;2023-03-17T12:29:39;101275.59;;;21.52;45.50
17254;BME280;32542;52.832;13.816;2023-03-17T12:32:50;101273.78;;;21.53;45.57
17254;BME280;32542;52.832;13.816;2023-03-17T12:35:55;101278.19;;;21.54;45.56
17254;BME280;32542;52.832;13.816;2023-03-17T12:39:01;101277.25;;;21.55;45.72
17254;BME280;32542;52.832;13.816;2023-03-17T12:42:20;101274.56;;;21.55;45.71
17254;BME280;32542;52.832;13.816;2023-03-17T12:45:40;101274.56;;;21.55;45.76
17254;BME280;32542;52.832;13.816;2023-03-17T12:48:58;101276.31;;;21.56;45.67
17254;BME280;32542;52.832;13.816;2023-03-17T12:52:29;101269.25;;;21.55;45.70
17254;BME280;32542;52.832;13.816;2023-03-17T12:55:38;101255.91;;;21.55;45.95
17254;BME280;32542;52.832;13.816;2023-03-17T12:58:44;101260.44;;;21.53;46.14
17254;BME280;32542;52.832;13.816;2023-03-17T13:01:54;101267.53;;;21.54;46.40
17254;BME280;32542;52.832;13.816;2023-03-17T13:04:59;101260.44;;;21.53;46.36
17254;BME280;32542;52.832;13.816;2023-03-17T13:08:10;101263.19;;;21.51;46.17
17254;BME280;32542;52.832;13.816;2023-03-17T13:11:19;101256.06;;;21.52;46.03
17254;BME280;32542;52.832;13.816;2023-03-17T13:14:39;101249.78;;;21.53;45.99
17254;BME280;32542;52.832;13.816;2023-03-17T13:17:43;101248.06;;;21.52;45.91
17254;BME280;32542;52.832;13.816;2023-03-17T13:21:05;101244.47;;;21.53;46.16
17254;BME280;32542;52.832;13.816;2023-03-17T13:24:34;101230.22;;;21.54;46.26
17254;BME280;32542;52.832;13.816;2023-03-17T13:27:44;101232.09;;;21.52;45.95
17254;BME280;32542;52.832;13.816;2023-03-17T13:31:07;101225.88;;;21.51;46.32
17254;BME280;32542;52.832;13.816;2023-03-17T13:34:12;101216.09;;;21.52;46.30
17254;BME280;32542;52.832;13.816;2023-03-17T13:37:22;101225.00;;;21.51;46.85
17254;BME280;32542;52.832;13.816;2023-03-17T13:40:34;101219.69;;;21.51;47.22
17254;BME280;32542;52.832;13.816;2023-03-17T13:43:55;101209.03;;;21.51;47.53
17254;BME280;32542;52.832;13.816;2023-03-17T13:47:25;101220.56;;;21.51;47.30
17254;BME280;32542;52.832;13.816;2023-03-17T13:50:31;101222.34;;;21.51;47.35
17254;BME280;32542;52.832;13.816;2023-03-17T13:53:36;101221.44;;;21.52;47.25
17254;BME280;32542;52.832;13.816;2023-03-17T13:56:46;101209.81;;;21.53;47.17
17254;BME280;32542;52.832;13.816;2023-03-17T14:00:03;101207.16;;;21.53;47.33
17254;BME280;32542;52.832;13.816;2023-03-17T14:03:18;101213.44;;;21.52;47.34
17254;BME280;32542;52.832;13.816;2023-03-17T14:06:26;101211.63;;;21.52;47.28
17254;BME280;32542;52.832;13.816;2023-03-17T14:09:34;101205.44;;;21.52;47.43
17254;BME280;32542;52.832;13.816;2023-03-17T14:12:43;101202.81;;;21.50;47.36
17254;BME280;32542;52.832;13.816;2023-03-17T14:15:53;101209.03;;;21.51;47.46
17254;BME280;32542;52.832;13.816;2023-03-17T14:19:09;101199.22;;;21.51;47.35
17254;BME280;32542;52.832;13.816;2023-03-17T14:22:22;101201.03;;;21.51;47.13
17254;BME280;32542;52.832;13.816;2023-03-17T14:25:29;101207.31;;;21.50;46.86
17254;BME280;32542;52.832;13.816;2023-03-17T14:28:34;101208.16;;;21.50;46.74
17254;BME280;32542;52.832;13.816;2023-03-17T14:31:37;101186.81;;;21.50;46.84
17254;BME280;32542;52.832;13.816;2023-03-17T14:34:43;101185.03;;;21.51;46.65
17254;BME280;32542;52.832;13.816;2023-03-17T14:37:46;101192.16;;;21.50;46.75
17254;BME280;32542;52.832;13.816;2023-03-17T14:40:50;101186.81;;;21.50;46.71
17254;BME280;32542;52.832;13.816;2023-03-17T14:44:00;101175.31;;;21.50;46.79
17254;BME280;32542;52.832;13.816;2023-03-17T14:47:05;101186.00;;;21.50;46.84
17254;BME280;32542;52.832;13.816;2023-03-17T14:50:17;101183.31;;;21.50;46.76
17254;BME280;32542;52.832;13.816;2023-03-17T14:53:22;101171.78;;;21.49;46.63
17254;BME280;32542;52.832;13.816;2023-03-17T14:56:30;101166.47;;;21.49;46.65
17254;BME280;32542;52.832;13.816;2023-03-17T14:59:39;101164.66;;;21.50;46.64
17254;BME280;32542;52.832;13.816;2023-03-17T15:02:53;101159.34;;;21.50;46.40
17254;BME280;32542;52.832;13.816;2023-03-17T15:06:15;101162.00;;;21.50;nan
17254;BME280;32542;52.832;13.816;2023-03-17T15:09:25;101170.00;;;21.50;46.44
17254;BME280;32542;52.832;13.816;2023-03-17T15:12:29;101159.34;;;21.50;46.45
17254;BME280;32542;52.832;13.816;2023-03-17T15:15:34;101164.66;;;21.50;46.47
17254;BME280;32542;52.832;13.816;2023-03-17T15:18:38;101155.72;;;21.51;46.58
17254;BME280;32542;52.832;13.816;2023-03-17T15:21:43;101149.59;;;21.49;46.54
17254;BME280;32542;52.832;13.816;2023-03-17T15:24:51;101148.69;;;21.50;46.55
17254;BME280;32542;52.832;13.816;2023-03-17T15:27:59;101144.19;;;21.50;46.44
17254;BME280;32542;52.832;13.816;2023-03-17T15:31:10;101138.03;;;21.50;46.45
17254;BME280;32542;52.832;13.816;2023-03-17T15:34:14;101146.84;;;21.50;46.52
17254;BME280;32542;52.832;13.816;2023-03-17T15:37:19;101137.16;;;21.49;46.41
17254;BME280;32542;52.832;13.816;2023-03-17T15:40:22;101138.88;;;21.50;46.17
17254;BME280;32542;52.832;13.816;2023-03-17T15:43:25;101140.59;;;21.51;46.27
17254;BME280;32542;52.832;13.816;2023-03-17T15:46:28;101136.16;;;21.52;46.24
17254;BME280;32542;52.832;13.816;2023-03-17T15:49:33;101137.03;;;21.52;46.24
17254;BME280;32542;52.832;13.816;2023-03-17T15:52:37;101124.53;;;21.53;46.18
17254;BME280;32542;52.832;13.816;2023-03-17T15:55:40;101117.50;;;21.52;46.24
17254;BME280;32542;52.832;13.816;2023-03-17T15:58:44;101114.84;;;21.52;46.27
17254;BME280;32542;52.832;13.816;2023-03-17T16:01:48;101110.44;;;21.51;46.16
17254;BME280;32542;52.832;13.816;2023-03-17T16:04:51;101115.75;;;21.51;46.19
17254;BME280;32542;52.832;13.816;2023-03-17T16:07:56;101118.41;;;21.51;46.23